sensor_id;sensor_type;location;lat;lon;timestamp;pressure;altitude;pressure_sealevel;temperature;humidity
67341;BME280;54227;45.198;5.732;2022-08-01T00:02:27;99187.44;;;29.74;40.26
67341;BME280;54227;45.198;5.732;2022-08-01T00:04:55;99187.06;;;29.72;40.04
67341;BME280;54227;45.198;5.732;2022-08-01T00:07:21;99177.41;;;29.73;40.33
67341;BME280;54227;45.198;5.732;2022-08-01T00:09:46;99183.06;;;29.73;40.08
67341;BME280;54227;45.198;5.732;2022-08-01T00:12:11;99188.25;;;29.74;40.37
67341;BME280;54227;45.198;5.732;2022-08-01T00:14:37;99187.44;;;29.74;40.22
67341;BME280;54227;45.198;5.732;2022-08-01T00:17:03;99185.88;;;29.73;40.29
67341;BME280;54227;45.198;5.732;2022-08-01T00:19:28;99187.44;;;29.74;40.00
67341;BME280;54227;45.198;5.732;2022-08-01T00:21:53;99188.25;;;29.74;40.07
67341;BME280;54227;45.198;5.732;2022-08-01T00:24:19;99191.50;;;29.73;40.00
67341;BME280;54227;45.198;5.732;2022-08-01T00:26:44;99187.06;;;29.72;40.28
67341;BME280;54227;45.198;5.732;2022-08-01T00:29:10;99181.44;;;29.72;40.54
67341;BME280;54227;45.198;5.732;2022-08-01T00:31:35;99183.84;;;29.73;40.41
67341;BME280;54227;45.198;5.732;2022-08-01T00:34:00;99177.03;;;29.71;40.10
67341;BME280;54227;45.198;5.732;2022-08-01T00:36:26;99183.06;;;29.73;40.14
67341;BME280;54227;45.198;5.732;2022-08-01T00:38:51;99188.69;;;29.73;40.19
67341;BME280;54227;45.198;5.732;2022-08-01T00:41:17;99192.72;;;29.72;40.11
67341;BME280;54227;45.198;5.732;2022-08-01T00:43:43;99189.91;;;29.72;40.27
67341;BME280;54227;45.198;5.732;2022-08-01T00:46:08;99188.69;;;29.73;40.42
67341;BME280;54227;45.198;5.732;2022-08-01T00:48:33;99195.13;;;29.73;40.46
67341;BME280;54227;45.198;5.732;2022-08-01T00:50:59;99196.69;;;29.74;40.03
67341;BME280;54227;45.198;5.732;2022-08-01T00:53:24;99185.06;;;29.72;40.02
67341;BME280;54227;45.198;5.732;2022-08-01T00:55:50;99191.50;;;29.73;40.06
67341;BME280;54227;45.198;5.732;2022-08-01T00:58:16;99185.16;;;29.69;40.40
67341;BME280;54227;45.198;5.732;2022-08-01T01:00:42;99188.69;;;29.73;40.45
67341;BME280;54227;45.198;5.732;2022-08-01T01:03:07;99191.94;;;29.71;40.13
67341;BME280;54227;45.198;5.732;2022-08-01T01:05:40;99195.97;;;29.70;40.35
67341;BME280;54227;45.198;5.732;2022-08-01T01:08:24;99201.16;;;29.72;40.10
67341;BME280;54227;45.198;5.732;2022-08-01T01:10:56;99199.97;;;29.73;40.40
67341;BME280;54227;45.198;5.732;2022-08-01T01:16:04;99199.97;;;29.73;40.47
67341;BME280;54227;45.198;5.732;2022-08-01T01:18:47;99206.41;;;29.73;40.10
67341;BME280;54227;45.198;5.732;2022-08-01T01:23:54;99204.81;;;29.72;40.22
67341;BME280;54227;45.198;5.732;2022-08-01T01:29:28;99200.75;;;29.73;40.39
67341;BME280;54227;45.198;5.732;2022-08-01T01:32:07;99203.91;;;29.75;40.05
67341;BME280;54227;45.198;5.732;2022-08-01T01:34:37;99201.53;;;29.74;40.40
67341;BME280;54227;45.198;5.732;2022-08-01T01:37:06;99205.50;;;29.76;40.25
67341;BME280;54227;45.198;5.732;2022-08-01T01:39:33;99211.94;;;29.77;40.17
67341;BME280;54227;45.198;5.732;2022-08-01T01:42:01;99206.28;;;29.77;40.36
67341;BME280;54227;45.198;5.732;2022-08-01T01:44:27;99207.97;;;29.74;40.02
67341;BME280;54227;45.198;5.732;2022-08-01T01:46:53;99199.06;;;29.76;39.94
67341;BME280;54227;45.198;5.732;2022-08-01T01:49:23;99207.88;;;29.78;40.19
67341;BME280;54227;45.198;5.732;2022-08-01T01:51:51;99205.06;;;29.78;40.08
67341;BME280;54227;45.198;5.732;2022-08-01T01:54:19;99203.81;;;29.79;39.96
67341;BME280;54227;45.198;5.732;2022-08-01T01:56:45;99205.41;;;29.80;39.88
67341;BME280;54227;45.198;5.732;2022-08-01T01:59:36;99209.03;;;29.80;40.18
67341;BME280;54227;45.198;5.732;2022-08-01T02:02:03;99207.78;;;29.81;40.22
67341;BME280;54227;45.198;5.732;2022-08-01T02:04:30;99215.47;;;29.81;39.98
67341;BME280;54227;45.198;5.732;2022-08-01T02:06:56;99212.66;;;29.81;39.96
67341;BME280;54227;45.198;5.732;2022-08-01T02:09:23;99211.84;;;29.80;40.03
67341;BME280;54227;45.198;5.732;2022-08-01T02:11:52;99209.38;;;29.82;40.26
67341;BME280;54227;45.198;5.732;2022-08-01T02:14:19;99213.44;;;29.81;39.74
67341;BME280;54227;45.198;5.732;2022-08-01T02:16:50;99213.44;;;29.81;39.80
67341;BME280;54227;45.198;5.732;2022-08-01T02:19:19;99216.25;;;29.81;40.11
67341;BME280;54227;45.198;5.732;2022-08-01T02:24:40;99206.22;;;29.80;39.80
67341;BME280;54227;45.198;5.732;2022-08-01T02:27:09;99215.47;;;29.81;40.02
67341;BME280;54227;45.198;5.732;2022-08-01T02:29:47;99217.50;;;29.80;40.18
67341;BME280;54227;45.198;5.732;2022-08-01T02:32:25;99221.44;;;29.83;40.16
67341;BME280;54227;45.198;5.732;2022-08-01T02:34:53;99227.09;;;29.83;40.11
67341;BME280;54227;45.198;5.732;2022-08-01T02:37:21;99219.88;;;29.82;40.17
67341;BME280;54227;45.198;5.732;2022-08-01T02:39:52;99225.06;;;29.83;40.04
67341;BME280;54227;45.198;5.732;2022-08-01T02:42:19;99221.00;;;29.84;39.60
67341;BME280;54227;45.198;5.732;2022-08-01T02:44:47;99219.41;;;29.83;40.13
67341;BME280;54227;45.198;5.732;2022-08-01T02:47:15;99223.03;;;29.84;40.10
67341;BME280;54227;45.198;5.732;2022-08-01T02:49:45;99223.03;;;29.84;39.77
67341;BME280;54227;45.198;5.732;2022-08-01T02:52:14;99226.63;;;29.84;39.89
67341;BME280;54227;45.198;5.732;2022-08-01T02:54:45;99225.84;;;29.84;39.94
67341;BME280;54227;45.198;5.732;2022-08-01T02:57:13;99228.22;;;29.85;39.94
67341;BME280;54227;45.198;5.732;2022-08-01T02:59:41;99229.91;;;29.83;39.79
67341;BME280;54227;45.198;5.732;2022-08-01T03:02:09;99229.47;;;29.84;40.12
67341;BME280;54227;45.198;5.732;2022-08-01T03:04:38;99228.66;;;29.84;39.72
67341;BME280;54227;45.198;5.732;2022-08-01T03:07:06;99233.06;;;29.85;39.72
67341;BME280;54227;45.198;5.732;2022-08-01T03:09:37;99230.25;;;29.85;39.64
67341;BME280;54227;45.198;5.732;2022-08-01T03:12:04;99235.88;;;29.85;40.01
67341;BME280;54227;45.198;5.732;2022-08-01T03:14:35;99226.63;;;29.84;39.98
67341;BME280;54227;45.198;5.732;2022-08-01T03:17:04;99235.88;;;29.85;39.96
67341;BME280;54227;45.198;5.732;2022-08-01T03:19:31;99221.09;;;29.81;39.72
67341;BME280;54227;45.198;5.732;2022-08-01T03:21:58;99227.44;;;29.85;39.66
67341;BME280;54227;45.198;5.732;2022-08-01T03:24:25;99223.38;;;29.86;39.56
67341;BME280;54227;45.198;5.732;2022-08-01T03:26:52;99224.59;;;29.85;39.95
67341;BME280;54227;45.198;5.732;2022-08-01T03:29:21;99227.44;;;29.85;39.95
67341;BME280;54227;45.198;5.732;2022-08-01T03:31:48;99218.19;;;29.84;39.55
67341;BME280;54227;45.198;5.732;2022-08-01T03:34:15;99215.81;;;29.83;39.68
67341;BME280;54227;45.198;5.732;2022-08-01T03:36:51;99219.41;;;29.83;39.74
67341;BME280;54227;45.198;5.732;2022-08-01T03:39:19;99225.41;;;29.85;39.91
67341;BME280;54227;45.198;5.732;2022-08-01T03:42:12;99218.28;;;29.81;39.60
67341;BME280;54227;45.198;5.732;2022-08-01T03:44:40;99224.59;;;29.85;39.50
67341;BME280;54227;45.198;5.732;2022-08-01T03:47:08;99227.44;;;29.85;39.50
67341;BME280;54227;45.198;5.732;2022-08-01T03:49:42;99231.50;;;29.84;39.51
67341;BME280;54227;45.198;5.732;2022-08-01T03:52:10;99232.72;;;29.83;39.62
67341;BME280;54227;45.198;5.732;2022-08-01T03:54:40;99235.88;;;29.85;39.77
67341;BME280;54227;45.198;5.732;2022-08-01T03:57:08;99230.25;;;29.85;39.59
67341;BME280;54227;45.198;5.732;2022-08-01T03:59:35;99237.13;;;29.84;39.79
67341;BME280;54227;45.198;5.732;2022-08-01T04:02:02;99233.50;;;29.83;39.97
67341;BME280;54227;45.198;5.732;2022-08-01T04:04:28;99231.50;;;29.84;39.43
67341;BME280;54227;45.198;5.732;2022-08-01T04:06:53;99238.72;;;29.85;39.56
67341;BME280;54227;45.198;5.732;2022-08-01T04:09:20;99235.53;;;29.83;39.75
67341;BME280;54227;45.198;5.732;2022-08-01T04:11:47;99237.47;;;29.86;39.77
67341;BME280;54227;45.198;5.732;2022-08-01T04:14:13;99239.50;;;29.85;39.95
67341;BME280;54227;45.198;5.732;2022-08-01T04:16:39;99247.16;;;29.85;39.84
67341;BME280;54227;45.198;5.732;2022-08-01T04:19:04;99244.00;;;29.83;39.78
67341;BME280;54227;45.198;5.732;2022-08-01T04:21:34;99243.22;;;29.82;39.61
67341;BME280;54227;45.198;5.732;2022-08-01T04:24:02;99247.16;;;29.85;40.04
67341;BME280;54227;45.198;5.732;2022-08-01T04:26:31;99249.97;;;29.85;39.65
67341;BME280;54227;45.198;5.732;2022-08-01T04:29:00;99253.59;;;29.85;39.63
67341;BME280;54227;45.198;5.732;2022-08-01T04:31:28;99248.84;;;29.82;39.56
67341;BME280;54227;45.198;5.732;2022-08-01T04:33:55;99256.88;;;29.84;39.49
67341;BME280;54227;45.198;5.732;2022-08-01T04:36:23;99252.81;;;29.85;39.44
67341;BME280;54227;45.198;5.732;2022-08-01T04:38:52;99268.13;;;29.84;39.59
67341;BME280;54227;45.198;5.732;2022-08-01T04:41:21;99264.88;;;29.85;39.64
67341;BME280;54227;45.198;5.732;2022-08-01T04:43:48;99265.31;;;29.84;39.89
67341;BME280;54227;45.198;5.732;2022-08-01T04:46:14;99262.50;;;29.84;39.75
67341;BME280;54227;45.198;5.732;2022-08-01T04:48:40;99269.72;;;29.85;39.56
67341;BME280;54227;45.198;5.732;2022-08-01T04:51:13;99265.31;;;29.84;39.55
67341;BME280;54227;45.198;5.732;2022-08-01T04:53:40;99265.31;;;29.84;40.02
67341;BME280;54227;45.198;5.732;2022-08-01T04:56:06;99274.56;;;29.84;39.63
67341;BME280;54227;45.198;5.732;2022-08-01T04:58:31;99275.38;;;29.85;40.02
67341;BME280;54227;45.198;5.732;2022-08-01T05:00:57;99281.00;;;29.85;39.58
67341;BME280;54227;45.198;5.732;2022-08-01T05:03:22;99278.19;;;29.85;39.56
67341;BME280;54227;45.198;5.732;2022-08-01T05:05:48;99280.66;;;29.83;39.48
67341;BME280;54227;45.198;5.732;2022-08-01T05:08:13;99273.78;;;29.84;39.62
67341;BME280;54227;45.198;5.732;2022-08-01T05:10:39;99268.59;;;29.82;39.95
67341;BME280;54227;45.198;5.732;2022-08-01T05:13:04;99273.78;;;29.84;39.56
67341;BME280;54227;45.198;5.732;2022-08-01T05:15:31;99269.38;;;29.83;40.04
67341;BME280;54227;45.198;5.732;2022-08-01T05:17:57;99267.34;;;29.83;39.94
67341;BME280;54227;45.198;5.732;2022-08-01T05:20:22;99274.56;;;29.84;40.02
67341;BME280;54227;45.198;5.732;2022-08-01T05:22:48;99268.94;;;29.84;39.88
67341;BME280;54227;45.198;5.732;2022-08-01T05:25:13;99267.69;;;29.85;39.64
67341;BME280;54227;45.198;5.732;2022-08-01T05:27:38;99262.16;;;29.82;39.56
67341;BME280;54227;45.198;5.732;2022-08-01T05:30:08;99268.13;;;29.84;39.87
67341;BME280;54227;45.198;5.732;2022-08-01T05:32:33;99268.13;;;29.84;39.85
67341;BME280;54227;45.198;5.732;2022-08-01T05:34:59;99269.38;;;29.83;39.48
67341;BME280;54227;45.198;5.732;2022-08-01T05:37:24;99270.50;;;29.85;39.58
67341;BME280;54227;45.198;5.732;2022-08-01T05:39:50;99272.53;;;29.85;39.78
67341;BME280;54227;45.198;5.732;2022-08-01T05:42:15;99274.56;;;29.84;39.60
67341;BME280;54227;45.198;5.732;2022-08-01T05:44:41;99264.19;;;29.81;39.91
67341;BME280;54227;45.198;5.732;2022-08-01T05:47:06;99273.34;;;29.85;39.49
67341;BME280;54227;45.198;5.732;2022-08-01T05:49:31;99267.00;;;29.81;39.87
67341;BME280;54227;45.198;5.732;2022-08-01T05:51:57;99279.41;;;29.84;39.95
67341;BME280;54227;45.198;5.732;2022-08-01T05:54:22;99276.59;;;29.84;39.78
67341;BME280;54227;45.198;5.732;2022-08-01T05:56:48;99271.41;;;29.82;39.90
67341;BME280;54227;45.198;5.732;2022-08-01T05:59:13;99272.19;;;29.83;39.95
67341;BME280;54227;45.198;5.732;2022-08-01T06:01:38;99278.63;;;29.83;39.85
67341;BME280;54227;45.198;5.732;2022-08-01T06:04:04;99277.75;;;29.70;39.58
67341;BME280;54227;45.198;5.732;2022-08-01T06:06:29;99276.94;;;29.53;39.37
67341;BME280;54227;45.198;5.732;2022-08-01T06:08:55;99281.72;;;29.37;40.78
67341;BME280;54227;45.198;5.732;2022-08-01T06:11:20;99280.97;;;29.16;41.42
67341;BME280;54227;45.198;5.732;2022-08-01T06:13:45;99284.50;;;29.00;41.54
67341;BME280;54227;45.198;5.732;2022-08-01T06:16:11;99282.22;;;28.95;41.64
67341;BME280;54227;45.198;5.732;2022-08-01T06:18:36;99276.25;;;28.90;41.33
67341;BME280;54227;45.198;5.732;2022-08-01T06:21:02;99283.84;;;28.93;40.25
67341;BME280;54227;45.198;5.732;2022-08-01T06:23:27;99278.28;;;28.89;41.29
67341;BME280;54227;45.198;5.732;2022-08-01T06:25:53;99278.34;;;28.86;41.63
67341;BME280;54227;45.198;5.732;2022-08-01T06:28:23;99278.56;;;28.75;42.02
67341;BME280;54227;45.198;5.732;2022-08-01T06:30:48;99284.69;;;28.70;41.95
67341;BME280;54227;45.198;5.732;2022-08-01T06:33:14;99274.66;;;28.69;42.05
67341;BME280;54227;45.198;5.732;2022-08-01T06:35:39;99288.25;;;28.74;41.78
67341;BME280;54227;45.198;5.732;2022-08-01T06:38:05;99279.41;;;28.72;41.47
67341;BME280;54227;45.198;5.732;2022-08-01T06:40:30;99278.28;;;28.69;42.12
67341;BME280;54227;45.198;5.732;2022-08-01T06:42:55;99275.75;;;28.55;42.43
67341;BME280;54227;45.198;5.732;2022-08-01T06:45:21;99271.78;;;28.52;42.42
67341;BME280;54227;45.198;5.732;2022-08-01T06:47:48;99276.81;;;28.61;42.21
67341;BME280;54227;45.198;5.732;2022-08-01T06:50:13;99277.91;;;28.67;41.89
67341;BME280;54227;45.198;5.732;2022-08-01T06:52:41;99280.38;;;28.65;40.75
67341;BME280;54227;45.198;5.732;2022-08-01T06:55:07;99273.53;;;28.66;41.71
67341;BME280;54227;45.198;5.732;2022-08-01T06:57:33;99284.19;;;28.55;42.13
67341;BME280;54227;45.198;5.732;2022-08-01T07:00:02;99282.28;;;28.48;42.48
67341;BME280;54227;45.198;5.732;2022-08-01T07:02:28;99281.44;;;28.51;42.24
67341;BME280;54227;45.198;5.732;2022-08-01T07:04:53;99278.13;;;28.57;41.94
67341;BME280;54227;45.198;5.732;2022-08-01T07:07:19;99268.88;;;28.56;41.98
67341;BME280;54227;45.198;5.732;2022-08-01T07:09:44;99274.81;;;28.62;41.79
67341;BME280;54227;45.198;5.732;2022-08-01T07:12:10;99278.78;;;28.64;41.92
67341;BME280;54227;45.198;5.732;2022-08-01T07:14:36;99280.72;;;28.67;41.83
67341;BME280;54227;45.198;5.732;2022-08-01T07:17:01;99285.06;;;28.72;41.66
67341;BME280;54227;45.198;5.732;2022-08-01T07:19:27;99268.59;;;28.70;41.15
67341;BME280;54227;45.198;5.732;2022-08-01T07:21:53;99276.25;;;28.70;41.66
67341;BME280;54227;45.198;5.732;2022-08-01T07:24:18;99273.22;;;28.61;42.15
67341;BME280;54227;45.198;5.732;2022-08-01T07:26:46;99279.03;;;28.50;42.33
67341;BME280;54227;45.198;5.732;2022-08-01T07:29:11;99280.72;;;28.47;42.17
67341;BME280;54227;45.198;5.732;2022-08-01T07:31:37;99279.88;;;28.50;42.06
67341;BME280;54227;45.198;5.732;2022-08-01T07:34:02;99272.50;;;28.57;42.11
67341;BME280;54227;45.198;5.732;2022-08-01T07:36:28;99273.22;;;28.61;42.04
67341;BME280;54227;45.198;5.732;2022-08-01T07:38:53;99275.53;;;28.66;41.00
67341;BME280;54227;45.198;5.732;2022-08-01T07:41:19;99266.38;;;28.62;41.17
67341;BME280;54227;45.198;5.732;2022-08-01T07:43:44;99266.06;;;28.56;42.14
67341;BME280;54227;45.198;5.732;2022-08-01T07:46:09;99267.00;;;28.49;42.04
67341;BME280;54227;45.198;5.732;2022-08-01T07:48:35;99274.28;;;28.47;42.31
67341;BME280;54227;45.198;5.732;2022-08-01T07:51:00;99259.28;;;28.54;41.99
67341;BME280;54227;45.198;5.732;2022-08-01T07:53:26;99261.22;;;28.57;41.79
67341;BME280;54227;45.198;5.732;2022-08-01T07:55:52;99261.97;;;28.61;41.94
67341;BME280;54227;45.198;5.732;2022-08-01T07:58:18;99259.88;;;28.65;41.89
67341;BME280;54227;45.198;5.732;2022-08-01T08:00:43;99263.41;;;28.69;41.00
67341;BME280;54227;45.198;5.732;2022-08-01T08:03:09;99259.88;;;28.65;40.97
67341;BME280;54227;45.198;5.732;2022-08-01T08:05:35;99247.16;;;28.57;41.60
67341;BME280;54227;45.198;5.732;2022-08-01T08:08:08;99245.66;;;28.52;41.90
67341;BME280;54227;45.198;5.732;2022-08-01T08:10:34;99240.88;;;28.49;41.85
67341;BME280;54227;45.198;5.732;2022-08-01T08:13:00;99255.34;;;28.51;41.84
67341;BME280;54227;45.198;5.732;2022-08-01T08:15:28;99238.81;;;28.53;41.87
67341;BME280;54227;45.198;5.732;2022-08-01T08:17:54;99249.13;;;28.60;41.45
67341;BME280;54227;45.198;5.732;2022-08-01T08:20:20;99253.03;;;28.66;41.46
67341;BME280;54227;45.198;5.732;2022-08-01T08:22:52;99244.19;;;28.64;41.41
67341;BME280;54227;45.198;5.732;2022-08-01T08:25:17;99243.41;;;28.63;41.51
67341;BME280;54227;45.198;5.732;2022-08-01T08:27:45;99245.38;;;28.66;41.36
67341;BME280;54227;45.198;5.732;2022-08-01T08:30:10;99244.16;;;28.67;41.51
67341;BME280;54227;45.198;5.732;2022-08-01T08:32:36;99237.63;;;28.70;40.93
67341;BME280;54227;45.198;5.732;2022-08-01T08:35:03;99241.25;;;28.71;41.18
67341;BME280;54227;45.198;5.732;2022-08-01T08:37:29;99241.25;;;28.71;41.24
67341;BME280;54227;45.198;5.732;2022-08-01T08:39:55;99235.13;;;28.76;41.08
67341;BME280;54227;45.198;5.732;2022-08-01T08:42:20;99233.44;;;28.78;40.98
67341;BME280;54227;45.198;5.732;2022-08-01T08:44:45;99238.66;;;28.80;40.64
67341;BME280;54227;45.198;5.732;2022-08-01T08:47:12;99228.19;;;28.81;41.13
67341;BME280;54227;45.198;5.732;2022-08-01T08:49:38;99231.88;;;28.77;40.88
67341;BME280;54227;45.198;5.732;2022-08-01T08:52:04;99231.94;;;28.74;40.62
67341;BME280;54227;45.198;5.732;2022-08-01T08:54:30;99231.50;;;28.75;40.92
67341;BME280;54227;45.198;5.732;2022-08-01T08:56:58;99223.50;;;28.74;40.89
67341;BME280;54227;45.198;5.732;2022-08-01T08:59:24;99215.06;;;28.74;40.84
67341;BME280;54227;45.198;5.732;2022-08-01T09:01:50;99224.22;;;28.78;40.59
67341;BME280;54227;45.198;5.732;2022-08-01T09:04:16;99214.97;;;28.77;40.58
67341;BME280;54227;45.198;5.732;2022-08-01T09:06:41;99214.47;;;28.83;40.63
67341;BME280;54227;45.198;5.732;2022-08-01T09:09:08;99203.28;;;28.79;40.49
67341;BME280;54227;45.198;5.732;2022-08-01T09:11:34;99214.91;;;28.81;40.38
67341;BME280;54227;45.198;5.732;2022-08-01T09:16:35;99202.06;;;28.80;40.36
67341;BME280;54227;45.198;5.732;2022-08-01T09:19:13;99213.69;;;28.82;40.54
67341;BME280;54227;45.198;5.732;2022-08-01T09:21:40;99208.41;;;28.84;40.41
67341;BME280;54227;45.198;5.732;2022-08-01T09:24:19;99206.03;;;28.83;40.65
67341;BME280;54227;45.198;5.732;2022-08-01T09:26:44;99208.03;;;28.82;40.63
67341;BME280;54227;45.198;5.732;2022-08-01T09:29:20;99210.06;;;28.82;40.80
67341;BME280;54227;45.198;5.732;2022-08-01T09:31:46;99206.09;;;28.79;41.04
67341;BME280;54227;45.198;5.732;2022-08-01T09:34:12;99206.09;;;28.79;40.90
67341;BME280;54227;45.198;5.732;2022-08-01T09:36:49;99208.50;;;28.81;40.95
67341;BME280;54227;45.198;5.732;2022-08-01T09:39:20;99198.03;;;28.81;40.22
67341;BME280;54227;45.198;5.732;2022-08-01T09:41:46;99190.88;;;28.76;40.48
67341;BME280;54227;45.198;5.732;2022-08-01T09:44:12;99187.75;;;28.71;40.95
67341;BME280;54227;45.198;5.732;2022-08-01T09:46:54;99190.38;;;28.62;41.11
67341;BME280;54227;45.198;5.732;2022-08-01T09:49:29;99188.28;;;28.66;40.92
67341;BME280;54227;45.198;5.732;2022-08-01T09:51:56;99188.66;;;28.68;40.92
67341;BME280;54227;45.198;5.732;2022-08-01T09:54:32;99186.19;;;28.70;40.68
67341;BME280;54227;45.198;5.732;2022-08-01T09:57:09;99184.09;;;28.74;40.77
67341;BME280;54227;45.198;5.732;2022-08-01T09:59:36;99177.25;;;28.75;40.50
67341;BME280;54227;45.198;5.732;2022-08-01T10:02:03;99173.63;;;28.74;40.54
67341;BME280;54227;45.198;5.732;2022-08-01T10:04:28;99173.97;;;28.76;40.50
67341;BME280;54227;45.198;5.732;2022-08-01T10:07:04;99165.88;;;28.78;40.37
67341;BME280;54227;45.198;5.732;2022-08-01T10:09:33;99167.06;;;28.81;40.42
67341;BME280;54227;45.198;5.732;2022-08-01T10:11:59;99162.66;;;28.80;40.49
67341;BME280;54227;45.198;5.732;2022-08-01T10:14:26;99156.13;;;28.83;40.42
67341;BME280;54227;45.198;5.732;2022-08-01T10:16:57;99154.56;;;28.82;40.23
67341;BME280;54227;45.198;5.732;2022-08-01T10:19:25;99151.25;;;28.87;40.25
67341;BME280;54227;45.198;5.732;2022-08-01T10:21:52;99147.19;;;28.88;40.35
67341;BME280;54227;45.198;5.732;2022-08-01T10:24:22;99140.38;;;28.86;40.09
67341;BME280;54227;45.198;5.732;2022-08-01T10:26:55;99142.00;;;28.87;40.00
67341;BME280;54227;45.198;5.732;2022-08-01T10:29:24;99135.13;;;28.88;39.97
67341;BME280;54227;45.198;5.732;2022-08-01T10:31:51;99133.47;;;28.90;40.11
67341;BME280;54227;45.198;5.732;2022-08-01T10:34:17;99135.94;;;28.88;40.07
67341;BME280;54227;45.198;5.732;2022-08-01T10:36:46;99123.81;;;28.91;40.01
67341;BME280;54227;45.198;5.732;2022-08-01T10:39:12;99123.38;;;28.93;40.17
67341;BME280;54227;45.198;5.732;2022-08-01T10:41:38;99113.34;;;28.92;40.11
67341;BME280;54227;45.198;5.732;2022-08-01T10:44:07;99102.13;;;28.88;39.98
67341;BME280;54227;45.198;5.732;2022-08-01T10:46:35;99095.66;;;28.91;39.54
67341;BME280;54227;45.198;5.732;2022-08-01T10:49:05;99098.16;;;28.86;39.34
67341;BME280;54227;45.198;5.732;2022-08-01T10:51:35;99094.22;;;28.83;39.96
67341;BME280;54227;45.198;5.732;2022-08-01T10:54:05;99087.94;;;28.75;40.25
67341;BME280;54227;45.198;5.732;2022-08-01T10:56:39;99089.63;;;28.73;40.19
67341;BME280;54227;45.198;5.732;2022-08-01T10:59:05;99077.47;;;28.76;40.10
67341;BME280;54227;45.198;5.732;2022-08-01T11:01:31;99079.41;;;28.79;39.98
67341;BME280;54227;45.198;5.732;2022-08-01T11:09:27;99062.78;;;28.85;39.88
67341;BME280;54227;45.198;5.732;2022-08-01T11:14:21;99062.72;;;28.88;39.90
67341;BME280;54227;45.198;5.732;2022-08-01T11:16:47;99059.53;;;28.86;39.19
67341;BME280;54227;45.198;5.732;2022-08-01T11:19:12;99047.66;;;28.78;39.44
67341;BME280;54227;45.198;5.732;2022-08-01T11:27:23;99042.97;;;28.72;40.20
67341;BME280;54227;45.198;5.732;2022-08-01T11:32:33;99033.16;;;28.80;39.97
67341;BME280;54227;45.198;5.732;2022-08-01T11:34:59;99023.66;;;28.74;39.20
67341;BME280;54227;45.198;5.732;2022-08-01T11:37:28;99009.31;;;28.68;39.81
67341;BME280;54227;45.198;5.732;2022-08-01T11:42:41;99011.50;;;28.61;40.38
67341;BME280;54227;45.198;5.732;2022-08-01T11:45:07;99012.28;;;28.61;40.51
67341;BME280;54227;45.198;5.732;2022-08-01T11:48:01;99013.34;;;28.67;40.43
67341;BME280;54227;45.198;5.732;2022-08-01T11:50:34;99003.56;;;28.72;40.26
67341;BME280;54227;45.198;5.732;2022-08-01T11:53:04;98981.06;;;28.72;39.17
67341;BME280;54227;45.198;5.732;2022-08-01T11:55:30;98995.69;;;28.67;40.04
67341;BME280;54227;45.198;5.732;2022-08-01T12:00:26;98971.84;;;28.55;40.59
67341;BME280;54227;45.198;5.732;2022-08-01T12:03:03;98981.78;;;28.60;40.46
67341;BME280;54227;45.198;5.732;2022-08-01T12:05:30;98977.28;;;28.62;40.47
67341;BME280;54227;45.198;5.732;2022-08-01T12:07:57;98977.13;;;28.69;40.45
67341;BME280;54227;45.198;5.732;2022-08-01T12:10:28;98985.81;;;28.75;40.36
67341;BME280;54227;45.198;5.732;2022-08-01T12:13:00;98974.13;;;28.76;39.80
67341;BME280;54227;45.198;5.732;2022-08-01T12:15:33;98984.69;;;28.72;39.55
67341;BME280;54227;45.198;5.732;2022-08-01T12:18:01;98984.41;;;28.67;40.25
67341;BME280;54227;45.198;5.732;2022-08-01T12:20:32;98979.66;;;28.64;40.60
67341;BME280;54227;45.198;5.732;2022-08-01T12:23:00;98970.88;;;28.62;40.29
67341;BME280;54227;45.198;5.732;2022-08-01T12:25:26;98965.06;;;28.69;40.32
67341;BME280;54227;45.198;5.732;2022-08-01T12:27:52;98967.81;;;28.72;40.29
67341;BME280;54227;45.198;5.732;2022-08-01T12:30:21;98956.97;;;28.71;39.43
67341;BME280;54227;45.198;5.732;2022-08-01T12:32:51;98967.19;;;28.65;39.74
67341;BME280;54227;45.198;5.732;2022-08-01T12:35:20;98971.66;;;28.62;40.69
67341;BME280;54227;45.198;5.732;2022-08-01T12:37:51;98970.19;;;28.58;40.55
67341;BME280;54227;45.198;5.732;2022-08-01T12:40:20;98972.09;;;28.61;40.31
67341;BME280;54227;45.198;5.732;2022-08-01T12:42:48;98956.78;;;28.62;40.66
67341;BME280;54227;45.198;5.732;2022-08-01T12:45:17;98973.50;;;28.69;40.27
67341;BME280;54227;45.198;5.732;2022-08-01T12:47:45;98964.16;;;28.72;39.64
67341;BME280;54227;45.198;5.732;2022-08-01T12:50:14;98963.50;;;28.68;39.62
67341;BME280;54227;45.198;5.732;2022-08-01T12:52:40;98961.13;;;28.66;40.17
67341;BME280;54227;45.198;5.732;2022-08-01T12:55:26;98957.25;;;28.60;40.48
67341;BME280;54227;45.198;5.732;2022-08-01T12:58:08;98954.78;;;28.62;40.52
67341;BME280;54227;45.198;5.732;2022-08-01T13:00:36;98938.16;;;28.68;40.38
67341;BME280;54227;45.198;5.732;2022-08-01T13:03:05;98944.91;;;28.70;40.31
67341;BME280;54227;45.198;5.732;2022-08-01T13:06:00;98940.88;;;28.71;39.75
67341;BME280;54227;45.198;5.732;2022-08-01T13:08:29;98939.75;;;28.69;39.86
67341;BME280;54227;45.198;5.732;2022-08-01T13:11:02;98959.97;;;28.64;40.43
67341;BME280;54227;45.198;5.732;2022-08-01T13:13:41;98945.19;;;28.60;40.39
67341;BME280;54227;45.198;5.732;2022-08-01T13:16:08;98958.81;;;28.61;40.39
67341;BME280;54227;45.198;5.732;2022-08-01T13:18:35;98955.13;;;28.64;40.46
67341;BME280;54227;45.198;5.732;2022-08-01T13:21:11;98962.69;;;28.67;40.19
67341;BME280;54227;45.198;5.732;2022-08-01T13:23:38;98941.31;;;28.70;39.99
67341;BME280;54227;45.198;5.732;2022-08-01T13:26:04;98952.06;;;28.75;39.77
67341;BME280;54227;45.198;5.732;2022-08-01T13:28:29;98939.56;;;28.76;39.79
67341;BME280;54227;45.198;5.732;2022-08-01T13:31:06;98945.53;;;28.78;39.79
67341;BME280;54227;45.198;5.732;2022-08-01T13:33:46;98943.09;;;28.80;40.08
67341;BME280;54227;45.198;5.732;2022-08-01T13:36:13;98944.22;;;28.83;39.83
67341;BME280;54227;45.198;5.732;2022-08-01T13:38:40;98947.03;;;28.83;39.15
67341;BME280;54227;45.198;5.732;2022-08-01T13:41:25;98949.56;;;28.77;39.11